createdAt,value
2017-01-19T00:01:34.700Z,0
2017-01-19T00:03:40.328Z,0
2017-01-19T00:05:54.595Z,0
2017-01-19T00:08:10.210Z,0
2017-01-19T00:10:25.319Z,0
2017-01-19T00:12:37.857Z,0
2017-01-19T00:14:50.371Z,0
2017-01-19T00:16:59.521Z,0
2017-01-19T00:19:13.151Z,0
2017-01-19T00:21:26.558Z,0
2017-01-19T00:23:41.145Z,0
2017-01-19T00:25:57.202Z,0
2017-01-19T00:28:10.492Z,0
2017-01-19T00:30:25.316Z,0
2017-01-19T00:32:38.791Z,0
2017-01-19T00:34:51.228Z,0
2017-01-19T00:36:59.405Z,0
2017-01-19T00:39:11.190Z,0
2017-01-19T00:41:23.786Z,0
2017-01-19T00:43:36.142Z,0
2017-01-19T00:45:50.639Z,0
2017-01-19T00:48:04.877Z,0
2017-01-19T00:50:19.299Z,0
2017-01-19T00:52:32.316Z,0
2017-01-19T00:54:40.416Z,0
2017-01-19T00:56:53.528Z,0
2017-01-19T00:59:00.922Z,0
2017-01-19T01:01:14.741Z,0
2017-01-19T01:03:22.840Z,0
2017-01-19T01:05:32.989Z,0
2017-01-19T01:07:45.974Z,0
2017-01-19T11:08:22.855Z,905
2017-01-19T11:10:58.951Z,990
2017-01-19T11:13:35.914Z,915
2017-01-19T11:16:06.657Z,970
2017-01-19T11:18:36.215Z,920
2017-01-19T11:21:03.913Z,850
2017-01-19T11:23:33.312Z,720
2017-01-19T11:26:01.341Z,1455
2017-01-19T11:28:37.923Z,1580
2017-01-19T11:30:57.031Z,1365
2017-01-19T11:33:28.388Z,1265
2017-01-19T11:36:01.839Z,1130
2017-01-19T11:38:30.379Z,1335
2017-01-19T11:40:57.553Z,895
2017-01-19T11:43:21.888Z,660
2017-01-19T11:45:29.158Z,995
2017-01-19T11:47:31.425Z,960
2017-01-19T11:49:44.089Z,1510
2017-01-19T11:51:51.923Z,1275
2017-01-19T11:54:04.755Z,1195
2017-01-19T11:56:11.977Z,1045
2017-01-19T11:58:19.789Z,1255
2017-01-19T12:00:27.252Z,1135
2017-01-19T12:02:40.179Z,1245
2017-01-19T12:04:53.045Z,1410
2017-01-19T12:07:05.320Z,1340
2017-01-19T12:09:17.574Z,1250
2017-01-19T12:11:24.972Z,1325
2017-01-19T12:13:37.308Z,1040
2017-01-19T12:15:50.287Z,990
2017-01-19T12:18:02.690Z,1055
2017-01-19T12:20:14.922Z,1260
2017-01-19T12:22:22.381Z,1295
2017-01-19T12:24:30.688Z,1005
2017-01-19T12:26:43.429Z,1205
2017-01-19T12:28:50.653Z,1175
2017-01-19T12:31:02.985Z,885
2017-01-19T12:33:05.425Z,900
2017-01-19T12:35:20.144Z,935
2017-01-19T12:37:32.790Z,890
2017-01-19T12:39:46.070Z,805
2017-01-19T12:41:59.275Z,780
2017-01-19T12:44:12.500Z,790
2017-01-19T12:46:26.839Z,805
2017-01-19T12:48:41.824Z,800
2017-01-19T12:50:49.272Z,760
2017-01-19T12:53:02.267Z,755
2017-01-19T12:55:14.679Z,750
2017-01-19T12:57:29.233Z,720
2017-01-19T12:59:46.806Z,745
2017-01-19T13:02:01.775Z,730
2017-01-19T13:04:14.154Z,725
2017-01-19T13:06:28.245Z,705
2017-01-19T13:08:43.432Z,700
2017-01-19T13:10:55.883Z,700
2017-01-19T13:13:08.420Z,695
2017-01-19T13:15:16.038Z,670
2017-01-19T13:17:28.622Z,690
2017-01-19T13:19:41.688Z,665
2017-01-19T13:21:54.651Z,655
2017-01-19T13:24:06.940Z,670
2017-01-19T13:26:19.202Z,675
2017-01-19T13:28:32.516Z,670
2017-01-19T13:30:44.851Z,660
2017-01-19T13:32:59.301Z,645
2017-01-19T13:35:14.145Z,635
2017-01-19T13:37:26.466Z,630
2017-01-19T13:39:38.730Z,640
2017-01-19T13:41:51.614Z,620
2017-01-19T13:44:04.556Z,605
2017-01-19T13:46:17.245Z,610
2017-01-19T13:48:32.883Z,610
2017-01-19T13:50:41.306Z,600
2017-01-19T13:52:54.060Z,590
2017-01-19T13:55:09.847Z,580
2017-01-19T13:57:17.431Z,570
2017-01-19T13:59:29.682Z,575
2017-01-19T14:01:42.527Z,550
2017-01-19T14:03:54.820Z,540
2017-01-19T14:06:07.570Z,525
2017-01-19T14:08:20.979Z,505
2017-01-19T14:21:51.010Z,440
2017-01-19T14:24:04.726Z,440
2017-01-19T14:26:18.655Z,420
2017-01-19T14:28:27.514Z,410
2017-01-19T14:30:40.465Z,400
2017-01-19T14:32:53.113Z,385
2017-01-19T14:35:05.802Z,365
2017-01-19T14:37:16.313Z,350
2017-01-19T14:39:29.741Z,335
2017-01-19T14:41:42.096Z,325
2017-01-19T14:43:55.168Z,315
2017-01-19T14:46:07.978Z,300
2017-01-19T14:48:15.372Z,290
2017-01-19T14:50:30.989Z,270
2017-01-19T14:52:43.340Z,255
2017-01-19T14:54:49.049Z,240
2017-01-19T14:57:01.375Z,230
2017-01-19T14:59:13.891Z,220
2017-01-19T15:01:26.526Z,205
2017-01-19T15:03:39.124Z,195
2017-01-19T15:05:51.787Z,185
2017-01-19T15:08:04.325Z,175
2017-01-19T15:10:16.654Z,165
2017-01-19T15:12:28.930Z,155
2017-01-19T15:14:41.209Z,145
2017-01-19T15:16:53.626Z,135
2017-01-19T15:19:07.440Z,130
2017-01-19T15:21:19.767Z,120
2017-01-19T15:23:32.087Z,110
2017-01-19T15:25:44.391Z,100
2017-01-19T15:27:56.808Z,90
2017-01-19T15:30:04.735Z,85
2017-01-19T15:32:11.901Z,80
2017-01-19T15:34:14.221Z,70
2017-01-19T15:36:26.540Z,65
2017-01-19T15:38:40.997Z,55
2017-01-19T15:40:54.640Z,50
2017-01-19T15:43:08.645Z,45
2017-01-19T15:45:22.359Z,40
2017-01-19T15:47:36.213Z,30
2017-01-19T15:49:48.520Z,25
2017-01-19T15:52:02.040Z,25
2017-01-19T15:54:17.494Z,20
2017-01-19T15:56:30.147Z,15
2017-01-19T15:58:37.383Z,15
2017-01-19T16:00:50.681Z,10
2017-01-19T16:03:00.116Z,5
2017-01-19T16:05:12.535Z,5
2017-01-19T16:07:20.893Z,5
2017-01-19T16:09:33.157Z,0
2017-01-19T16:11:45.606Z,0
2017-01-19T16:14:18.861Z,0
2017-01-19T16:16:28.034Z,0
2017-01-19T16:18:46.328Z,0
2017-01-19T16:21:03.089Z,0
2017-01-19T16:23:14.369Z,0
2017-01-19T16:25:29.965Z,0
2017-01-19T16:27:43.893Z,0
2017-01-19T16:29:56.326Z,0
2017-01-19T16:32:08.807Z,0
2017-01-19T16:34:26.642Z,0
2017-01-19T16:36:38.943Z,0
2017-01-19T16:38:51.262Z,0
2017-01-19T16:41:03.669Z,0
2017-01-19T16:43:16.450Z,0
2017-01-19T16:45:28.912Z,0
2017-01-19T16:47:41.385Z,0
2017-01-19T16:49:53.773Z,0
2017-01-19T16:52:06.234Z,0
2017-01-19T16:54:19.082Z,0
2017-01-19T16:56:31.873Z,0
2017-01-19T16:58:39.192Z,0
2017-01-19T17:00:49.728Z,0
2017-01-19T17:03:01.913Z,0
2017-01-19T17:05:14.215Z,0
2017-01-19T17:07:26.496Z,0
2017-01-19T17:09:33.747Z,0
2017-01-19T17:11:46.068Z,0
2017-01-19T17:13:58.353Z,0
2017-01-19T17:16:10.626Z,0
2017-01-19T17:18:22.965Z,0
2017-01-19T17:20:35.213Z,0
2017-01-19T17:22:47.541Z,0
2017-01-19T17:24:59.820Z,0
2017-01-19T17:27:12.132Z,0
2017-01-19T17:29:19.733Z,0
2017-01-19T17:31:32.015Z,0
2017-01-19T17:33:44.929Z,0
2017-01-19T17:35:52.266Z,0
2017-01-19T17:37:59.733Z,0
2017-01-19T17:40:12.087Z,0
2017-01-19T17:42:19.375Z,0
2017-01-19T17:44:31.737Z,0
2017-01-19T17:46:44.163Z,0
2017-01-19T17:48:51.607Z,0
2017-01-19T17:51:03.916Z,0
2017-01-19T17:53:16.220Z,0
2017-01-19T17:55:28.683Z,0
2017-01-19T17:57:41.356Z,0
2017-01-19T17:59:48.718Z,0
2017-01-19T18:02:01.068Z,0
2017-01-19T18:04:13.776Z,0
2017-01-19T18:06:27.411Z,0
2017-01-19T18:08:40.860Z,0
2017-01-19T18:10:54.093Z,0
2017-01-19T18:13:06.410Z,0
2017-01-19T18:15:18.747Z,0
2017-01-19T18:17:31.010Z,0
2017-01-19T18:19:38.368Z,0
2017-01-19T18:21:52.337Z,0
2017-01-19T18:24:06.378Z,0
2017-01-19T18:26:19.487Z,0
2017-01-19T18:28:32.691Z,0
2017-01-19T18:30:45.531Z,0
2017-01-19T18:32:57.917Z,0
2017-01-19T18:35:11.106Z,0
2017-01-19T18:37:23.864Z,0
2017-01-19T18:39:39.735Z,0
2017-01-19T18:41:47.143Z,0
2017-01-19T18:43:59.994Z,0
2017-01-19T18:46:12.413Z,0
2017-01-19T18:48:24.775Z,0
2017-01-19T18:50:37.424Z,0
2017-01-19T18:52:44.928Z,0
2017-01-19T18:54:57.417Z,0
2017-01-19T18:57:10.085Z,0
2017-01-19T18:59:17.557Z,0
2017-01-19T19:01:29.991Z,0
2017-01-19T19:03:42.277Z,0
2017-01-19T19:06:06.620Z,0
2017-01-19T19:08:18.919Z,0
2017-01-19T19:10:26.267Z,0
2017-01-19T19:12:38.625Z,0
2017-01-19T19:14:50.945Z,0
2017-01-19T19:17:03.432Z,0
2017-01-19T19:19:15.992Z,0
2017-01-19T19:21:28.302Z,0
2017-01-19T19:23:35.954Z,0
2017-01-19T19:25:48.653Z,0
2017-01-19T19:28:01.023Z,0
2017-01-19T19:30:13.548Z,0
2017-01-19T19:32:25.875Z,0
2017-01-19T19:34:38.322Z,0
2017-01-19T19:36:48.983Z,0
2017-01-19T19:39:01.405Z,0
2017-01-19T19:41:13.811Z,0
2017-01-19T19:43:26.101Z,0
2017-01-19T19:45:38.381Z,0
2017-01-19T19:47:45.679Z,0
2017-01-19T19:49:58.068Z,0
2017-01-19T19:52:05.656Z,0
2017-01-19T19:54:35.563Z,0
2017-01-19T19:56:53.099Z,0
2017-01-19T19:59:11.329Z,0
2017-01-19T20:01:18.929Z,0
2017-01-19T20:03:31.295Z,0
2017-01-19T20:05:43.945Z,0
2017-01-19T20:07:51.584Z,0
2017-01-19T20:10:04.028Z,0
2017-01-19T20:12:18.025Z,0
2017-01-19T20:14:30.340Z,0
2017-01-19T20:16:37.781Z,0
2017-01-19T20:18:45.220Z,0
2017-01-19T20:20:57.543Z,0
2017-01-19T20:23:09.848Z,0
2017-01-19T20:25:22.060Z,0
2017-01-19T20:27:34.674Z,0
2017-01-19T20:29:47.051Z,0
2017-01-19T20:31:54.470Z,0
2017-01-19T20:34:07.194Z,0
2017-01-19T20:36:19.444Z,0
2017-01-19T20:38:33.275Z,0
2017-01-19T20:40:46.535Z,0
2017-01-19T20:43:01.630Z,0
2017-01-19T20:45:16.175Z,0
2017-01-19T20:47:46.436Z,0
2017-01-19T20:53:28.429Z,0
2017-01-19T20:55:40.984Z,0
2017-01-19T20:58:15.068Z,0
2017-01-19T21:00:31.326Z,0
2017-01-19T21:02:43.938Z,0
2017-01-19T21:04:56.316Z,0
2017-01-19T21:07:09.038Z,0
2017-01-19T21:09:22.071Z,0
2017-01-19T21:11:34.987Z,0
2017-01-19T21:13:47.757Z,0
2017-01-19T21:16:00.313Z,0
2017-01-19T21:18:15.644Z,0
2017-01-19T21:20:31.350Z,0
2017-01-19T21:22:44.821Z,0
2017-01-19T21:25:02.637Z,0
2017-01-19T21:27:09.891Z,0
2017-01-19T21:29:24.326Z,0
2017-01-19T21:31:37.696Z,0
2017-01-19T21:33:49.953Z,0
2017-01-19T21:36:03.825Z,0
2017-01-19T21:38:18.478Z,0
2017-01-19T21:40:31.455Z,0
2017-01-19T21:42:46.404Z,0
2017-01-19T21:44:59.702Z,0
2017-01-19T21:47:08.640Z,0
2017-01-19T21:49:23.846Z,0
2017-01-19T21:51:34.978Z,0
2017-01-19T21:53:48.944Z,0
2017-01-19T21:56:15.323Z,0
2017-01-19T21:58:31.042Z,0
2017-01-19T22:00:44.851Z,0
2017-01-19T22:02:58.600Z,0
2017-01-19T22:05:11.087Z,0
2017-01-19T22:07:25.432Z,0
2017-01-19T22:09:39.198Z,0
2017-01-19T22:11:52.097Z,0
2017-01-19T22:14:05.829Z,0
2017-01-19T22:16:19.144Z,0
2017-01-19T22:18:35.180Z,0
2017-01-19T22:20:46.187Z,0
2017-01-19T22:22:59.518Z,0
2017-01-19T22:25:15.899Z,0
2017-01-19T22:27:31.344Z,0
2017-01-19T22:29:45.460Z,0
2017-01-19T22:31:57.827Z,0
2017-01-19T22:34:21.381Z,0
2017-01-19T22:36:46.923Z,0
2017-01-19T22:38:59.141Z,0
2017-01-19T22:41:11.498Z,0
2017-01-19T22:43:23.917Z,0
2017-01-19T22:45:34.414Z,0
2017-01-19T22:47:48.320Z,0
2017-01-19T22:50:00.523Z,0
2017-01-19T22:52:07.979Z,0
2017-01-19T22:54:15.609Z,0
2017-01-19T22:56:23.404Z,0
2017-01-19T22:58:36.256Z,0
2017-01-19T23:00:48.504Z,0
2017-01-19T23:03:01.572Z,0
2017-01-19T23:05:14.054Z,0
2017-01-19T23:07:24.598Z,0
2017-01-19T23:09:36.918Z,0
2017-01-19T23:11:49.148Z,0
2017-01-19T23:14:01.350Z,0
2017-01-19T23:16:13.676Z,0
2017-01-19T23:18:21.002Z,0
2017-01-19T23:20:33.717Z,0
2017-01-19T23:22:46.977Z,0
2017-01-19T23:24:59.314Z,0
2017-01-19T23:27:11.502Z,0
2017-01-19T23:29:24.586Z,0
2017-01-19T23:31:37.418Z,0
2017-01-19T23:33:50.116Z,0
2017-01-19T23:35:57.527Z,0
2017-01-19T23:38:09.929Z,0
2017-01-19T23:40:22.241Z,0
2017-01-19T23:42:34.552Z,0
2017-01-19T23:44:46.710Z,0
2017-01-19T23:46:59.215Z,0
2017-01-19T23:49:11.549Z,0
2017-01-19T23:51:13.810Z,0
2017-01-19T23:53:26.123Z,0
2017-01-19T23:55:38.437Z,0
2017-01-19T23:57:50.670Z,0
